sensor_id;sensor_type;location;lat;lon;timestamp;P1;durP1;ratioP1;P2;durP2;ratioP2
74291;SDS011;62687;55.738;37.516;2023-03-31T00:00:32;3.90;;;2.50;;
74291;SDS011;62687;55.738;37.516;2023-03-31T00:03:18;2.75;;;1.65;;
74291;SDS011;62687;55.738;37.516;2023-03-31T00:06:08;3.38;;;2.17;;
74291;SDS011;62687;55.738;37.516;2023-03-31T00:09:01;3.50;;;2.13;;
74291;SDS011;62687;55.738;37.516;2023-03-31T00:11:57;3.75;;;2.17;;
74291;SDS011;62687;55.738;37.516;2023-03-31T00:14:43;5.28;;;2.60;;
74291;SDS011;62687;55.738;37.516;2023-03-31T00:17:27;8.05;;;2.63;;
74291;SDS011;62687;55.738;37.516;2023-03-31T00:20:16;5.05;;;2.45;;
74291;SDS011;62687;55.738;37.516;2023-03-31T00:25:46;4.20;;;2.00;;
74291;SDS011;62687;55.738;37.516;2023-03-31T00:28:32;5.28;;;2.40;;
74291;SDS011;62687;55.738;37.516;2023-03-31T00:31:18;3.97;;;2.40;;
74291;SDS011;62687;55.738;37.516;2023-03-31T00:34:06;7.28;;;2.80;;
74291;SDS011;62687;55.738;37.516;2023-03-31T00:36:53;4.95;;;2.55;;
74291;SDS011;62687;55.738;37.516;2023-03-31T00:39:41;4.53;;;2.33;;
74291;SDS011;62687;55.738;37.516;2023-03-31T00:42:28;11.00;;;2.97;;
74291;SDS011;62687;55.738;37.516;2023-03-31T00:48:01;6.75;;;2.47;;
74291;SDS011;62687;55.738;37.516;2023-03-31T00:50:54;6.70;;;2.92;;
74291;SDS011;62687;55.738;37.516;2023-03-31T00:53:42;5.40;;;2.88;;
74291;SDS011;62687;55.738;37.516;2023-03-31T00:56:38;7.32;;;2.75;;
74291;SDS011;62687;55.738;37.516;2023-03-31T00:59:27;5.43;;;3.10;;
74291;SDS011;62687;55.738;37.516;2023-03-31T01:02:18;11.88;;;3.22;;
74291;SDS011;62687;55.738;37.516;2023-03-31T01:05:08;5.80;;;2.80;;
74291;SDS011;62687;55.738;37.516;2023-03-31T01:07:53;10.43;;;3.03;;
74291;SDS011;62687;55.738;37.516;2023-03-31T01:10:43;4.93;;;2.92;;
74291;SDS011;62687;55.738;37.516;2023-03-31T01:13:37;6.43;;;3.00;;
74291;SDS011;62687;55.738;37.516;2023-03-31T01:16:25;6.60;;;3.33;;
74291;SDS011;62687;55.738;37.516;2023-03-31T01:19:25;5.07;;;3.13;;
74291;SDS011;62687;55.738;37.516;2023-03-31T01:25:08;6.32;;;3.08;;
74291;SDS011;62687;55.738;37.516;2023-03-31T01:40:32;6.28;;;3.17;;
74291;SDS011;62687;55.738;37.516;2023-03-31T01:46:27;5.70;;;2.45;;
74291;SDS011;62687;55.738;37.516;2023-03-31T01:55:08;6.43;;;3.00;;
74291;SDS011;62687;55.738;37.516;2023-03-31T02:00:51;5.30;;;2.58;;
74291;SDS011;62687;55.738;37.516;2023-03-31T02:03:47;5.57;;;2.83;;
74291;SDS011;62687;55.738;37.516;2023-03-31T02:06:40;6.65;;;2.50;;
74291;SDS011;62687;55.738;37.516;2023-03-31T02:09:31;4.50;;;2.67;;
74291;SDS011;62687;55.738;37.516;2023-03-31T02:12:20;4.22;;;2.72;;
74291;SDS011;62687;55.738;37.516;2023-03-31T02:15:13;7.63;;;2.88;;
74291;SDS011;62687;55.738;37.516;2023-03-31T02:18:05;6.07;;;2.83;;
74291;SDS011;62687;55.738;37.516;2023-03-31T02:20:54;5.63;;;2.85;;
74291;SDS011;62687;55.738;37.516;2023-03-31T02:23:40;5.32;;;2.80;;
74291;SDS011;62687;55.738;37.516;2023-03-31T02:26:27;10.52;;;2.90;;
74291;SDS011;62687;55.738;37.516;2023-03-31T02:29:18;7.90;;;2.65;;
74291;SDS011;62687;55.738;37.516;2023-03-31T02:35:18;11.85;;;2.75;;
74291;SDS011;62687;55.738;37.516;2023-03-31T02:38:04;8.18;;;2.42;;
74291;SDS011;62687;55.738;37.516;2023-03-31T02:40:49;6.22;;;2.03;;
74291;SDS011;62687;55.738;37.516;2023-03-31T02:43:34;4.65;;;2.10;;
74291;SDS011;62687;55.738;37.516;2023-03-31T02:46:18;7.22;;;2.20;;
74291;SDS011;62687;55.738;37.516;2023-03-31T02:49:03;8.43;;;2.97;;
74291;SDS011;62687;55.738;37.516;2023-03-31T02:58:02;7.55;;;2.63;;
74291;SDS011;62687;55.738;37.516;2023-03-31T03:03:59;16.92;;;2.92;;
74291;SDS011;62687;55.738;37.516;2023-03-31T03:07:04;6.97;;;2.53;;
74291;SDS011;62687;55.738;37.516;2023-03-31T03:15:50;5.55;;;2.15;;
74291;SDS011;62687;55.738;37.516;2023-03-31T03:18:42;7.95;;;1.85;;
74291;SDS011;62687;55.738;37.516;2023-03-31T03:21:27;4.18;;;1.73;;
74291;SDS011;62687;55.738;37.516;2023-03-31T03:24:13;4.88;;;2.00;;
74291;SDS011;62687;55.738;37.516;2023-03-31T03:26:59;8.50;;;2.03;;
74291;SDS011;62687;55.738;37.516;2023-03-31T03:29:44;7.38;;;2.25;;
74291;SDS011;62687;55.738;37.516;2023-03-31T03:32:28;10.95;;;2.20;;
74291;SDS011;62687;55.738;37.516;2023-03-31T03:35:12;7.03;;;2.50;;
74291;SDS011;62687;55.738;37.516;2023-03-31T03:37:56;7.15;;;2.13;;
74291;SDS011;62687;55.738;37.516;2023-03-31T03:40:41;3.55;;;2.20;;
74291;SDS011;62687;55.738;37.516;2023-03-31T03:43:25;4.85;;;2.40;;
74291;SDS011;62687;55.738;37.516;2023-03-31T03:46:09;3.50;;;1.75;;
74291;SDS011;62687;55.738;37.516;2023-03-31T03:48:53;9.10;;;2.47;;
74291;SDS011;62687;55.738;37.516;2023-03-31T03:51:38;6.07;;;2.70;;
74291;SDS011;62687;55.738;37.516;2023-03-31T03:54:22;8.38;;;2.30;;
74291;SDS011;62687;55.738;37.516;2023-03-31T03:57:06;13.07;;;2.85;;
74291;SDS011;62687;55.738;37.516;2023-03-31T03:59:50;11.23;;;3.60;;
74291;SDS011;62687;55.738;37.516;2023-03-31T04:02:35;10.98;;;3.58;;
74291;SDS011;62687;55.738;37.516;2023-03-31T04:05:19;5.28;;;2.40;;
74291;SDS011;62687;55.738;37.516;2023-03-31T04:08:03;5.38;;;2.50;;
74291;SDS011;62687;55.738;37.516;2023-03-31T04:10:48;6.18;;;2.58;;
74291;SDS011;62687;55.738;37.516;2023-03-31T04:13:33;10.32;;;3.53;;
74291;SDS011;62687;55.738;37.516;2023-03-31T04:16:17;19.00;;;3.05;;
74291;SDS011;62687;55.738;37.516;2023-03-31T04:19:01;7.38;;;2.78;;
74291;SDS011;62687;55.738;37.516;2023-03-31T04:21:47;14.30;;;2.75;;
74291;SDS011;62687;55.738;37.516;2023-03-31T04:24:33;11.23;;;3.05;;
74291;SDS011;62687;55.738;37.516;2023-03-31T04:27:21;12.25;;;3.08;;
74291;SDS011;62687;55.738;37.516;2023-03-31T04:30:05;8.82;;;2.70;;
74291;SDS011;62687;55.738;37.516;2023-03-31T04:32:52;16.63;;;3.00;;
74291;SDS011;62687;55.738;37.516;2023-03-31T04:35:38;6.85;;;3.22;;
74291;SDS011;62687;55.738;37.516;2023-03-31T04:38:41;9.95;;;3.15;;
74291;SDS011;62687;55.738;37.516;2023-03-31T04:41:29;17.23;;;4.22;;
74291;SDS011;62687;55.738;37.516;2023-03-31T04:44:13;15.98;;;3.92;;
74291;SDS011;62687;55.738;37.516;2023-03-31T04:46:57;7.75;;;2.80;;
74291;SDS011;62687;55.738;37.516;2023-03-31T04:49:45;17.13;;;3.50;;
74291;SDS011;62687;55.738;37.516;2023-03-31T04:52:29;11.18;;;2.75;;
74291;SDS011;62687;55.738;37.516;2023-03-31T04:55:13;9.95;;;3.13;;
74291;SDS011;62687;55.738;37.516;2023-03-31T04:57:58;9.77;;;2.28;;
74291;SDS011;62687;55.738;37.516;2023-03-31T05:00:43;12.07;;;2.50;;
74291;SDS011;62687;55.738;37.516;2023-03-31T05:03:27;8.15;;;2.80;;
74291;SDS011;62687;55.738;37.516;2023-03-31T05:06:11;5.78;;;2.67;;
74291;SDS011;62687;55.738;37.516;2023-03-31T05:08:55;13.40;;;2.65;;
74291;SDS011;62687;55.738;37.516;2023-03-31T05:11:39;12.93;;;2.88;;
74291;SDS011;62687;55.738;37.516;2023-03-31T05:14:23;11.52;;;2.85;;
74291;SDS011;62687;55.738;37.516;2023-03-31T05:17:07;9.13;;;3.67;;
74291;SDS011;62687;55.738;37.516;2023-03-31T05:19:51;15.30;;;3.45;;
74291;SDS011;62687;55.738;37.516;2023-03-31T05:22:36;15.27;;;3.22;;
74291;SDS011;62687;55.738;37.516;2023-03-31T05:25:21;12.48;;;3.25;;
74291;SDS011;62687;55.738;37.516;2023-03-31T05:28:06;16.13;;;2.97;;
74291;SDS011;62687;55.738;37.516;2023-03-31T05:30:50;12.63;;;3.78;;
74291;SDS011;62687;55.738;37.516;2023-03-31T05:33:35;11.80;;;3.08;;
74291;SDS011;62687;55.738;37.516;2023-03-31T05:36:23;10.50;;;3.25;;
74291;SDS011;62687;55.738;37.516;2023-03-31T05:39:10;14.63;;;3.17;;
74291;SDS011;62687;55.738;37.516;2023-03-31T05:41:54;12.48;;;3.50;;
74291;SDS011;62687;55.738;37.516;2023-03-31T05:44:39;10.32;;;4.55;;
74291;SDS011;62687;55.738;37.516;2023-03-31T05:47:23;14.73;;;4.47;;
74291;SDS011;62687;55.738;37.516;2023-03-31T05:50:08;15.80;;;3.28;;
74291;SDS011;62687;55.738;37.516;2023-03-31T05:52:53;10.70;;;2.80;;
74291;SDS011;62687;55.738;37.516;2023-03-31T05:55:38;12.85;;;4.32;;
74291;SDS011;62687;55.738;37.516;2023-03-31T05:58:22;8.23;;;3.47;;
74291;SDS011;62687;55.738;37.516;2023-03-31T06:01:08;14.43;;;3.70;;
74291;SDS011;62687;55.738;37.516;2023-03-31T06:03:53;17.55;;;4.65;;
74291;SDS011;62687;55.738;37.516;2023-03-31T06:06:39;16.17;;;4.45;;
74291;SDS011;62687;55.738;37.516;2023-03-31T06:09:23;16.13;;;4.55;;
74291;SDS011;62687;55.738;37.516;2023-03-31T06:12:08;10.02;;;3.20;;
74291;SDS011;62687;55.738;37.516;2023-03-31T06:14:52;11.57;;;3.47;;
74291;SDS011;62687;55.738;37.516;2023-03-31T06:17:37;15.93;;;3.67;;
74291;SDS011;62687;55.738;37.516;2023-03-31T06:20:21;10.07;;;3.63;;
74291;SDS011;62687;55.738;37.516;2023-03-31T06:23:05;17.08;;;3.72;;
74291;SDS011;62687;55.738;37.516;2023-03-31T06:25:50;14.13;;;3.88;;
74291;SDS011;62687;55.738;37.516;2023-03-31T06:28:35;8.82;;;3.20;;
74291;SDS011;62687;55.738;37.516;2023-03-31T06:31:21;6.50;;;3.30;;
74291;SDS011;62687;55.738;37.516;2023-03-31T06:34:06;15.70;;;3.60;;
74291;SDS011;62687;55.738;37.516;2023-03-31T06:36:50;8.55;;;3.67;;
74291;SDS011;62687;55.738;37.516;2023-03-31T06:39:36;16.38;;;3.08;;
74291;SDS011;62687;55.738;37.516;2023-03-31T06:42:20;11.30;;;3.05;;
74291;SDS011;62687;55.738;37.516;2023-03-31T06:45:05;11.75;;;3.42;;
74291;SDS011;62687;55.738;37.516;2023-03-31T06:47:49;14.65;;;3.42;;
74291;SDS011;62687;55.738;37.516;2023-03-31T06:50:36;15.10;;;3.45;;
74291;SDS011;62687;55.738;37.516;2023-03-31T06:53:21;14.07;;;3.60;;
74291;SDS011;62687;55.738;37.516;2023-03-31T06:56:06;8.00;;;3.33;;
74291;SDS011;62687;55.738;37.516;2023-03-31T06:58:51;11.35;;;3.53;;
74291;SDS011;62687;55.738;37.516;2023-03-31T07:01:35;14.90;;;4.13;;
74291;SDS011;62687;55.738;37.516;2023-03-31T07:04:21;15.25;;;4.22;;
74291;SDS011;62687;55.738;37.516;2023-03-31T07:07:05;13.30;;;3.33;;
74291;SDS011;62687;55.738;37.516;2023-03-31T07:09:49;12.48;;;3.60;;
74291;SDS011;62687;55.738;37.516;2023-03-31T07:12:34;23.30;;;4.38;;
74291;SDS011;62687;55.738;37.516;2023-03-31T07:15:18;27.23;;;4.65;;
74291;SDS011;62687;55.738;37.516;2023-03-31T07:18:03;18.73;;;4.53;;
74291;SDS011;62687;55.738;37.516;2023-03-31T07:20:48;17.83;;;4.82;;
74291;SDS011;62687;55.738;37.516;2023-03-31T07:23:33;15.68;;;4.35;;
74291;SDS011;62687;55.738;37.516;2023-03-31T07:26:18;15.77;;;3.92;;
74291;SDS011;62687;55.738;37.516;2023-03-31T07:29:03;13.73;;;4.03;;
74291;SDS011;62687;55.738;37.516;2023-03-31T07:31:47;13.65;;;4.18;;
74291;SDS011;62687;55.738;37.516;2023-03-31T07:34:31;21.25;;;5.18;;
74291;SDS011;62687;55.738;37.516;2023-03-31T07:37:16;16.50;;;3.63;;
74291;SDS011;62687;55.738;37.516;2023-03-31T07:40:00;12.18;;;3.90;;
74291;SDS011;62687;55.738;37.516;2023-03-31T07:42:45;13.70;;;4.32;;
74291;SDS011;62687;55.738;37.516;2023-03-31T07:45:31;9.63;;;3.08;;
74291;SDS011;62687;55.738;37.516;2023-03-31T07:48:16;16.13;;;4.30;;
74291;SDS011;62687;55.738;37.516;2023-03-31T07:51:00;15.55;;;3.65;;
74291;SDS011;62687;55.738;37.516;2023-03-31T07:53:44;26.60;;;4.80;;
74291;SDS011;62687;55.738;37.516;2023-03-31T07:56:29;13.05;;;4.13;;
74291;SDS011;62687;55.738;37.516;2023-03-31T07:59:13;21.27;;;3.67;;
74291;SDS011;62687;55.738;37.516;2023-03-31T08:01:58;17.95;;;4.10;;
74291;SDS011;62687;55.738;37.516;2023-03-31T08:04:43;10.20;;;3.85;;
74291;SDS011;62687;55.738;37.516;2023-03-31T08:07:28;20.17;;;4.20;;
74291;SDS011;62687;55.738;37.516;2023-03-31T08:10:15;21.33;;;4.30;;
74291;SDS011;62687;55.738;37.516;2023-03-31T08:13:02;9.02;;;3.60;;
74291;SDS011;62687;55.738;37.516;2023-03-31T08:15:46;10.40;;;3.60;;
74291;SDS011;62687;55.738;37.516;2023-03-31T08:18:31;24.75;;;4.82;;
74291;SDS011;62687;55.738;37.516;2023-03-31T08:21:15;10.55;;;3.95;;
74291;SDS011;62687;55.738;37.516;2023-03-31T08:24:00;9.73;;;4.18;;
74291;SDS011;62687;55.738;37.516;2023-03-31T08:26:44;15.07;;;3.70;;
74291;SDS011;62687;55.738;37.516;2023-03-31T08:29:29;11.77;;;4.00;;
74291;SDS011;62687;55.738;37.516;2023-03-31T08:32:14;9.10;;;3.58;;
74291;SDS011;62687;55.738;37.516;2023-03-31T08:34:58;17.25;;;5.28;;
74291;SDS011;62687;55.738;37.516;2023-03-31T08:37:43;13.40;;;3.60;;
74291;SDS011;62687;55.738;37.516;2023-03-31T08:40:28;7.15;;;3.13;;
74291;SDS011;62687;55.738;37.516;2023-03-31T08:43:17;9.77;;;3.20;;
74291;SDS011;62687;55.738;37.516;2023-03-31T08:46:10;6.22;;;2.85;;
74291;SDS011;62687;55.738;37.516;2023-03-31T08:48:57;11.70;;;3.28;;
74291;SDS011;62687;55.738;37.516;2023-03-31T08:51:49;17.52;;;3.97;;
74291;SDS011;62687;55.738;37.516;2023-03-31T08:54:57;19.38;;;3.85;;
74291;SDS011;62687;55.738;37.516;2023-03-31T09:00:39;15.40;;;3.47;;
74291;SDS011;62687;55.738;37.516;2023-03-31T09:06:52;15.02;;;3.95;;
74291;SDS011;62687;55.738;37.516;2023-03-31T09:10:16;20.58;;;3.70;;
74291;SDS011;62687;55.738;37.516;2023-03-31T09:12:56;15.02;;;4.32;;
74291;SDS011;62687;55.738;37.516;2023-03-31T09:16:14;16.95;;;3.80;;
74291;SDS011;62687;55.738;37.516;2023-03-31T09:19:02;23.25;;;3.28;;
74291;SDS011;62687;55.738;37.516;2023-03-31T09:21:47;14.27;;;3.55;;
74291;SDS011;62687;55.738;37.516;2023-03-31T09:24:58;19.75;;;4.53;;
74291;SDS011;62687;55.738;37.516;2023-03-31T09:27:51;7.03;;;3.10;;
74291;SDS011;62687;55.738;37.516;2023-03-31T09:30:40;15.30;;;3.80;;
74291;SDS011;62687;55.738;37.516;2023-03-31T09:33:27;18.83;;;4.05;;
74291;SDS011;62687;55.738;37.516;2023-03-31T09:36:16;21.80;;;3.67;;
74291;SDS011;62687;55.738;37.516;2023-03-31T09:39:02;19.92;;;4.13;;
74291;SDS011;62687;55.738;37.516;2023-03-31T09:47:25;17.55;;;3.67;;
74291;SDS011;62687;55.738;37.516;2023-03-31T09:50:15;9.30;;;2.85;;
74291;SDS011;62687;55.738;37.516;2023-03-31T09:55:49;11.40;;;2.97;;
74291;SDS011;62687;55.738;37.516;2023-03-31T09:58:42;11.70;;;3.60;;
74291;SDS011;62687;55.738;37.516;2023-03-31T10:01:28;18.88;;;3.03;;
74291;SDS011;62687;55.738;37.516;2023-03-31T10:04:23;18.63;;;3.40;;
74291;SDS011;62687;55.738;37.516;2023-03-31T10:07:09;8.88;;;2.88;;
74291;SDS011;62687;55.738;37.516;2023-03-31T10:09:55;10.13;;;3.45;;
74291;SDS011;62687;55.738;37.516;2023-03-31T10:12:40;19.15;;;3.30;;
74291;SDS011;62687;55.738;37.516;2023-03-31T10:15:25;13.38;;;2.97;;
74291;SDS011;62687;55.738;37.516;2023-03-31T10:18:13;13.30;;;3.05;;
74291;SDS011;62687;55.738;37.516;2023-03-31T10:21:00;9.93;;;3.00;;
74291;SDS011;62687;55.738;37.516;2023-03-31T10:23:46;15.90;;;2.60;;
74291;SDS011;62687;55.738;37.516;2023-03-31T10:26:32;3.90;;;2.13;;
74291;SDS011;62687;55.738;37.516;2023-03-31T10:29:18;8.63;;;2.92;;
74291;SDS011;62687;55.738;37.516;2023-03-31T10:32:10;5.70;;;2.58;;
74291;SDS011;62687;55.738;37.516;2023-03-31T10:38:09;9.85;;;3.10;;
74291;SDS011;62687;55.738;37.516;2023-03-31T10:40:57;14.52;;;2.40;;
74291;SDS011;62687;55.738;37.516;2023-03-31T10:43:43;15.15;;;4.45;;
74291;SDS011;62687;55.738;37.516;2023-03-31T10:49:26;8.93;;;3.28;;
74291;SDS011;62687;55.738;37.516;2023-03-31T10:52:16;13.43;;;2.28;;
74291;SDS011;62687;55.738;37.516;2023-03-31T10:55:05;16.80;;;3.75;;
74291;SDS011;62687;55.738;37.516;2023-03-31T10:57:55;10.98;;;2.85;;
74291;SDS011;62687;55.738;37.516;2023-03-31T11:01:05;13.27;;;3.53;;
74291;SDS011;62687;55.738;37.516;2023-03-31T11:25:38;9.45;;;3.13;;
74291;SDS011;62687;55.738;37.516;2023-03-31T11:40:46;21.92;;;3.88;;
74291;SDS011;62687;55.738;37.516;2023-03-31T11:43:49;12.45;;;3.50;;
74291;SDS011;62687;55.738;37.516;2023-03-31T11:49:27;12.82;;;3.50;;
74291;SDS011;62687;55.738;37.516;2023-03-31T11:52:14;19.30;;;3.47;;
74291;SDS011;62687;55.738;37.516;2023-03-31T11:58:10;17.42;;;4.32;;
74291;SDS011;62687;55.738;37.516;2023-03-31T12:01:02;25.42;;;3.17;;
74291;SDS011;62687;55.738;37.516;2023-03-31T12:03:59;11.45;;;3.35;;
74291;SDS011;62687;55.738;37.516;2023-03-31T12:06:47;12.57;;;3.65;;
74291;SDS011;62687;55.738;37.516;2023-03-31T12:09:37;20.08;;;3.65;;
74291;SDS011;62687;55.738;37.516;2023-03-31T12:12:37;12.57;;;3.72;;
74291;SDS011;62687;55.738;37.516;2023-03-31T12:15:38;13.20;;;3.30;;
74291;SDS011;62687;55.738;37.516;2023-03-31T12:18:25;12.85;;;3.53;;
74291;SDS011;62687;55.738;37.516;2023-03-31T12:21:15;11.35;;;3.15;;
74291;SDS011;62687;55.738;37.516;2023-03-31T12:24:00;12.10;;;3.92;;
74291;SDS011;62687;55.738;37.516;2023-03-31T12:26:56;11.30;;;3.40;;
74291;SDS011;62687;55.738;37.516;2023-03-31T12:29:53;10.40;;;3.40;;
74291;SDS011;62687;55.738;37.516;2023-03-31T12:32:46;15.38;;;3.50;;
74291;SDS011;62687;55.738;37.516;2023-03-31T12:45:16;11.05;;;2.95;;
74291;SDS011;62687;55.738;37.516;2023-03-31T12:57:37;22.70;;;3.90;;
74291;SDS011;62687;55.738;37.516;2023-03-31T13:00:22;15.43;;;3.67;;
74291;SDS011;62687;55.738;37.516;2023-03-31T13:11:57;9.95;;;3.95;;
74291;SDS011;62687;55.738;37.516;2023-03-31T13:14:50;18.90;;;3.50;;
74291;SDS011;62687;55.738;37.516;2023-03-31T13:17:37;11.57;;;3.67;;
74291;SDS011;62687;55.738;37.516;2023-03-31T13:20:29;12.10;;;4.22;;
74291;SDS011;62687;55.738;37.516;2023-03-31T13:26:32;11.75;;;3.72;;
74291;SDS011;62687;55.738;37.516;2023-03-31T13:35:20;8.50;;;3.85;;
74291;SDS011;62687;55.738;37.516;2023-03-31T13:38:05;12.57;;;4.88;;
74291;SDS011;62687;55.738;37.516;2023-03-31T13:41:10;10.52;;;4.25;;
74291;SDS011;62687;55.738;37.516;2023-03-31T14:06:00;10.77;;;4.18;;
74291;SDS011;62687;55.738;37.516;2023-03-31T14:08:53;8.65;;;4.80;;
74291;SDS011;62687;55.738;37.516;2023-03-31T14:11:42;8.18;;;4.25;;
74291;SDS011;62687;55.738;37.516;2023-03-31T14:14:26;11.02;;;3.97;;
74291;SDS011;62687;55.738;37.516;2023-03-31T14:17:12;11.23;;;4.25;;
74291;SDS011;62687;55.738;37.516;2023-03-31T14:26:19;10.00;;;4.78;;
74291;SDS011;62687;55.738;37.516;2023-03-31T14:29:13;11.40;;;4.00;;
74291;SDS011;62687;55.738;37.516;2023-03-31T14:32:18;8.02;;;4.28;;
74291;SDS011;62687;55.738;37.516;2023-03-31T14:35:27;10.63;;;5.63;;
74291;SDS011;62687;55.738;37.516;2023-03-31T14:38:21;12.60;;;5.55;;
74291;SDS011;62687;55.738;37.516;2023-03-31T14:41:12;11.15;;;4.68;;
74291;SDS011;62687;55.738;37.516;2023-03-31T14:44:03;10.45;;;5.10;;
74291;SDS011;62687;55.738;37.516;2023-03-31T14:46:49;11.50;;;5.20;;
74291;SDS011;62687;55.738;37.516;2023-03-31T14:49:35;11.88;;;5.47;;
74291;SDS011;62687;55.738;37.516;2023-03-31T14:52:21;9.68;;;5.25;;
74291;SDS011;62687;55.738;37.516;2023-03-31T14:55:12;13.55;;;5.72;;
74291;SDS011;62687;55.738;37.516;2023-03-31T14:58:00;10.25;;;5.43;;
74291;SDS011;62687;55.738;37.516;2023-03-31T15:00:45;8.82;;;4.55;;
74291;SDS011;62687;55.738;37.516;2023-03-31T15:03:31;12.07;;;5.40;;
74291;SDS011;62687;55.738;37.516;2023-03-31T15:06:18;11.77;;;4.95;;
74291;SDS011;62687;55.738;37.516;2023-03-31T15:09:03;10.98;;;4.72;;
74291;SDS011;62687;55.738;37.516;2023-03-31T15:11:53;12.60;;;5.22;;
74291;SDS011;62687;55.738;37.516;2023-03-31T15:14:56;8.88;;;4.65;;
74291;SDS011;62687;55.738;37.516;2023-03-31T15:17:46;14.60;;;4.93;;
74291;SDS011;62687;55.738;37.516;2023-03-31T15:20:35;10.75;;;5.28;;
74291;SDS011;62687;55.738;37.516;2023-03-31T15:26:10;13.35;;;5.03;;
74291;SDS011;62687;55.738;37.516;2023-03-31T15:29:16;13.50;;;5.70;;
74291;SDS011;62687;55.738;37.516;2023-03-31T15:32:05;11.40;;;5.18;;
74291;SDS011;62687;55.738;37.516;2023-03-31T15:34:56;9.20;;;5.32;;
74291;SDS011;62687;55.738;37.516;2023-03-31T15:37:42;9.13;;;5.10;;
74291;SDS011;62687;55.738;37.516;2023-03-31T15:40:36;9.07;;;5.03;;
74291;SDS011;62687;55.738;37.516;2023-03-31T15:49:23;14.10;;;5.85;;
74291;SDS011;62687;55.738;37.516;2023-03-31T15:52:18;13.75;;;5.32;;
74291;SDS011;62687;55.738;37.516;2023-03-31T15:55:58;11.02;;;5.68;;
74291;SDS011;62687;55.738;37.516;2023-03-31T16:01:43;12.18;;;5.75;;
74291;SDS011;62687;55.738;37.516;2023-03-31T16:04:32;9.82;;;5.13;;
74291;SDS011;62687;55.738;37.516;2023-03-31T16:07:18;12.45;;;6.03;;
74291;SDS011;62687;55.738;37.516;2023-03-31T16:10:09;11.05;;;5.53;;
74291;SDS011;62687;55.738;37.516;2023-03-31T16:13:02;12.40;;;6.00;;
74291;SDS011;62687;55.738;37.516;2023-03-31T16:15:49;12.27;;;6.68;;
74291;SDS011;62687;55.738;37.516;2023-03-31T16:18:38;12.10;;;6.53;;
74291;SDS011;62687;55.738;37.516;2023-03-31T16:21:27;15.70;;;6.88;;
74291;SDS011;62687;55.738;37.516;2023-03-31T16:24:16;16.73;;;7.55;;
74291;SDS011;62687;55.738;37.516;2023-03-31T16:27:01;18.70;;;7.65;;
74291;SDS011;62687;55.738;37.516;2023-03-31T16:29:49;16.60;;;6.78;;
74291;SDS011;62687;55.738;37.516;2023-03-31T16:32:33;15.60;;;7.30;;
74291;SDS011;62687;55.738;37.516;2023-03-31T16:35:17;12.75;;;6.22;;
74291;SDS011;62687;55.738;37.516;2023-03-31T16:38:03;17.23;;;6.90;;
74291;SDS011;62687;55.738;37.516;2023-03-31T16:43:33;15.05;;;5.85;;
74291;SDS011;62687;55.738;37.516;2023-03-31T16:46:17;11.02;;;5.47;;
74291;SDS011;62687;55.738;37.516;2023-03-31T16:49:02;12.52;;;6.75;;
74291;SDS011;62687;55.738;37.516;2023-03-31T16:51:46;14.02;;;6.40;;
74291;SDS011;62687;55.738;37.516;2023-03-31T16:54:30;16.75;;;6.07;;
74291;SDS011;62687;55.738;37.516;2023-03-31T16:57:14;9.70;;;5.03;;
74291;SDS011;62687;55.738;37.516;2023-03-31T16:59:59;13.23;;;5.28;;
74291;SDS011;62687;55.738;37.516;2023-03-31T17:02:44;13.57;;;5.32;;
74291;SDS011;62687;55.738;37.516;2023-03-31T17:05:15;10.70;;;5.30;;
74291;SDS011;62687;55.738;37.516;2023-03-31T17:07:59;9.80;;;5.10;;
74291;SDS011;62687;55.738;37.516;2023-03-31T17:10:50;11.30;;;5.25;;
74291;SDS011;62687;55.738;37.516;2023-03-31T17:13:41;11.75;;;5.45;;
74291;SDS011;62687;55.738;37.516;2023-03-31T17:16:27;8.85;;;5.00;;
74291;SDS011;62687;55.738;37.516;2023-03-31T17:19:11;10.77;;;4.82;;
74291;SDS011;62687;55.738;37.516;2023-03-31T17:21:55;9.15;;;5.00;;
74291;SDS011;62687;55.738;37.516;2023-03-31T17:24:44;9.63;;;5.05;;
74291;SDS011;62687;55.738;37.516;2023-03-31T17:27:28;12.95;;;5.13;;
74291;SDS011;62687;55.738;37.516;2023-03-31T17:30:13;8.68;;;4.47;;
74291;SDS011;62687;55.738;37.516;2023-03-31T17:32:58;11.52;;;5.20;;
74291;SDS011;62687;55.738;37.516;2023-03-31T17:35:43;11.95;;;6.28;;
74291;SDS011;62687;55.738;37.516;2023-03-31T17:38:27;11.60;;;5.82;;
74291;SDS011;62687;55.738;37.516;2023-03-31T17:41:12;12.18;;;5.85;;
74291;SDS011;62687;55.738;37.516;2023-03-31T17:43:56;10.40;;;5.93;;
74291;SDS011;62687;55.738;37.516;2023-03-31T17:46:41;12.13;;;5.22;;
74291;SDS011;62687;55.738;37.516;2023-03-31T17:49:25;12.57;;;5.05;;
74291;SDS011;62687;55.738;37.516;2023-03-31T17:52:10;9.38;;;5.07;;
74291;SDS011;62687;55.738;37.516;2023-03-31T17:54:55;10.65;;;5.60;;
74291;SDS011;62687;55.738;37.516;2023-03-31T17:57:40;13.43;;;5.97;;
74291;SDS011;62687;55.738;37.516;2023-03-31T18:00:24;12.63;;;6.85;;
74291;SDS011;62687;55.738;37.516;2023-03-31T18:03:09;17.58;;;8.32;;
74291;SDS011;62687;55.738;37.516;2023-03-31T18:05:53;17.20;;;8.55;;
74291;SDS011;62687;55.738;37.516;2023-03-31T18:08:38;14.50;;;7.32;;
74291;SDS011;62687;55.738;37.516;2023-03-31T18:11:42;12.38;;;6.47;;
74291;SDS011;62687;55.738;37.516;2023-03-31T18:14:37;15.88;;;6.63;;
74291;SDS011;62687;55.738;37.516;2023-03-31T18:17:27;13.43;;;6.07;;
74291;SDS011;62687;55.738;37.516;2023-03-31T18:20:12;12.15;;;5.78;;
74291;SDS011;62687;55.738;37.516;2023-03-31T18:23:06;13.52;;;6.10;;
74291;SDS011;62687;55.738;37.516;2023-03-31T18:25:54;15.25;;;6.00;;
74291;SDS011;62687;55.738;37.516;2023-03-31T18:28:50;10.90;;;5.68;;
74291;SDS011;62687;55.738;37.516;2023-03-31T18:34:42;10.80;;;5.60;;
74291;SDS011;62687;55.738;37.516;2023-03-31T18:37:27;9.88;;;5.35;;
74291;SDS011;62687;55.738;37.516;2023-03-31T18:40:12;11.32;;;4.72;;
74291;SDS011;62687;55.738;37.516;2023-03-31T18:43:12;11.13;;;6.07;;
74291;SDS011;62687;55.738;37.516;2023-03-31T18:46:05;12.10;;;7.75;;
74291;SDS011;62687;55.738;37.516;2023-03-31T18:48:56;10.48;;;6.43;;
74291;SDS011;62687;55.738;37.516;2023-03-31T18:51:44;10.50;;;4.60;;
74291;SDS011;62687;55.738;37.516;2023-03-31T18:54:38;10.48;;;4.65;;
74291;SDS011;62687;55.738;37.516;2023-03-31T18:57:23;8.57;;;4.40;;
74291;SDS011;62687;55.738;37.516;2023-03-31T19:00:23;11.38;;;4.95;;
74291;SDS011;62687;55.738;37.516;2023-03-31T19:03:10;9.05;;;5.20;;
74291;SDS011;62687;55.738;37.516;2023-03-31T19:06:14;12.15;;;4.43;;
74291;SDS011;62687;55.738;37.516;2023-03-31T19:09:05;8.95;;;3.97;;
74291;SDS011;62687;55.738;37.516;2023-03-31T19:11:54;9.00;;;4.30;;
74291;SDS011;62687;55.738;37.516;2023-03-31T19:14:40;7.50;;;4.18;;
74291;SDS011;62687;55.738;37.516;2023-03-31T19:17:34;9.30;;;4.35;;
74291;SDS011;62687;55.738;37.516;2023-03-31T19:20:19;8.40;;;4.82;;
74291;SDS011;62687;55.738;37.516;2023-03-31T19:23:04;7.32;;;4.30;;
74291;SDS011;62687;55.738;37.516;2023-03-31T19:25:53;7.25;;;3.90;;
74291;SDS011;62687;55.738;37.516;2023-03-31T19:28:39;9.30;;;4.85;;
74291;SDS011;62687;55.738;37.516;2023-03-31T19:31:30;13.20;;;4.50;;
74291;SDS011;62687;55.738;37.516;2023-03-31T19:34:30;10.55;;;4.53;;
74291;SDS011;62687;55.738;37.516;2023-03-31T19:37:16;10.07;;;4.90;;
74291;SDS011;62687;55.738;37.516;2023-03-31T19:40:14;9.90;;;4.85;;
74291;SDS011;62687;55.738;37.516;2023-03-31T19:43:03;11.35;;;4.97;;